Time;durP1;ratioP1;P1;durP2;ratioP2;P2;SDS_P1;SDS_P2;PMS_P1;PMS_P2;Temp;Humidity;BMP_temperature;BMP_pressure;BME280_temperature;BME280_humidity;BME280_pressure;Samples;Min_cycle;Max_cycle;Signal;HPM_P1;HPM_P2
2022/06/01 00:02:20;;;;;;;2.17;1.97;;;8.80;99.90;;;;;;5052614;28;20706;-74
2022/06/01 00:04:46;;;;;;;2.20;2.00;;;8.80;99.90;;;;;;5036341;28;20185;-75
2022/06/01 00:07:11;;;;;;;2.20;2.00;;;8.90;99.90;;;;;;5052866;28;20193;-74
2022/06/01 00:09:37;;;;;;;2.63;2.10;;;8.80;99.90;;;;;;5036585;28;20188;-74
2022/06/01 00:12:03;;;;;;;2.10;1.90;;;8.70;99.90;;;;;;5052380;28;20226;-74
2022/06/01 00:14:29;;;;;;;2.30;2.10;;;8.70;99.90;;;;;;5054248;28;20185;-77
2022/06/01 00:16:56;;;;;;;2.43;1.83;;;8.60;99.90;;;;;;5052886;28;20277;-76
2022/06/01 00:19:22;;;;;;;3.07;1.80;;;8.50;99.90;;;;;;5053030;28;20577;-76
2022/06/01 00:24:33;;;;;;;2.20;2.00;;;8.50;99.90;;;;;;5053119;28;20182;-76
2022/06/01 00:26:58;;;;;;;2.07;1.80;;;8.40;99.90;;;;;;5035681;28;20272;-76
2022/06/01 00:29:24;;;;;;;3.13;2.03;;;8.50;99.90;;;;;;5051874;28;20579;-76
2022/06/01 00:31:50;;;;;;;2.23;2.03;;;8.40;99.90;;;;;;5052046;28;20215;-76
2022/06/01 00:34:15;;;;;;;2.13;1.90;;;8.20;99.90;;;;;;5052253;28;20184;-76
2022/06/01 00:36:41;;;;;;;2.27;2.07;;;8.10;99.90;;;;;;5052350;28;20192;-76
2022/06/01 00:39:07;;;;;;;2.10;1.93;;;8.10;99.90;;;;;;5035568;28;20178;-76
2022/06/01 00:41:32;;;;;;;2.47;2.27;;;8.30;99.90;;;;;;5052381;28;20188;-76
2022/06/01 00:43:58;;;;;;;2.43;2.23;;;8.50;99.90;;;;;;5052079;28;20185;-76
2022/06/01 00:46:24;;;;;;;2.73;2.43;;;8.60;99.90;;;;;;5052061;28;20222;-77
2022/06/01 00:48:54;;;;;;;3.27;2.10;;;8.50;99.90;;;;;;5052040;28;20184;-76
2022/06/01 00:51:26;;;;;;;2.40;2.20;;;8.50;99.90;;;;;;5052261;28;20204;-76
2022/06/01 00:53:53;;;;;;;2.77;2.40;;;8.60;99.90;;;;;;5035463;28;20279;-76
2022/06/01 00:56:23;;;;;;;2.47;2.13;;;8.60;99.90;;;;;;5035495;28;20205;-76
2022/06/01 00:58:52;;;;;;;2.30;2.10;;;8.60;99.90;;;;;;5052089;28;20181;-76
2022/06/01 01:01:20;;;;;;;2.17;2.07;;;8.40;99.90;;;;;;5035076;28;20185;-76
2022/06/01 01:03:49;;;;;;;2.97;2.20;;;7.90;99.90;;;;;;5051864;28;20330;-76
2022/06/01 01:06:21;;;;;;;2.17;1.97;;;8.00;99.90;;;;;;5052206;28;20187;-76
2022/06/01 01:08:47;;;;;;;2.60;2.40;;;8.10;99.90;;;;;;5051701;28;20182;-76
2022/06/01 01:11:15;;;;;;;2.90;2.60;;;8.00;99.90;;;;;;5051582;28;20206;-77
2022/06/01 01:13:45;;;;;;;2.57;2.37;;;8.10;99.90;;;;;;5051212;28;20291;-76
2022/06/01 01:16:11;;;;;;;2.50;2.30;;;8.00;99.90;;;;;;5052117;28;20178;-76
2022/06/01 01:18:40;;;;;;;2.43;2.23;;;7.90;99.90;;;;;;5051573;28;20273;-76
2022/06/01 01:21:26;;;;;;;2.57;2.37;;;7.70;99.90;;;;;;5051412;28;20734;-76
2022/06/01 01:23:56;;;;;;;2.33;2.13;;;7.50;99.90;;;;;;5051173;28;20193;-76
2022/06/01 01:26:23;;;;;;;3.83;2.60;;;7.60;99.90;;;;;;5067941;28;20193;-76
2022/06/01 01:28:49;;;;;;;2.50;2.30;;;7.60;99.90;;;;;;5067993;28;20186;-76
2022/06/01 01:31:21;;;;;;;2.63;2.43;;;7.60;99.90;;;;;;5051398;28;20201;-76
2022/06/01 01:33:49;;;;;;;2.20;1.90;;;7.60;99.90;;;;;;5050961;28;20202;-76
2022/06/01 01:36:17;;;;;;;2.50;2.30;;;7.40;99.90;;;;;;5051458;28;20212;-76
2022/06/01 01:38:54;;;;;;;2.40;2.20;;;7.40;99.90;;;;;;5051134;28;20179;-76
2022/06/01 01:41:34;;;;;;;2.57;2.37;;;7.50;99.90;;;;;;5067789;28;20178;-77
2022/06/01 01:44:10;;;;;;;3.17;2.40;;;7.60;99.90;;;;;;5051574;28;20177;-77
2022/06/01 01:46:36;;;;;;;2.50;2.30;;;7.60;99.90;;;;;;5051222;28;20209;-76
2022/06/01 01:49:02;;;;;;;3.20;2.63;;;7.60;99.90;;;;;;5051040;28;20188;-76
2022/06/01 01:51:29;;;;;;;2.80;2.60;;;7.80;99.90;;;;;;5051097;28;20202;-76
2022/06/01 01:53:59;;;;;;;2.80;2.60;;;7.90;99.90;;;;;;5050953;28;20180;-76
2022/06/01 01:56:43;;;;;;;2.80;2.57;;;7.90;99.90;;;;;;5034898;28;20212;-76
2022/06/01 01:59:15;;;;;;;4.40;2.90;;;7.70;99.90;;;;;;5050967;28;20178;-76
2022/06/01 02:01:48;;;;;;;3.10;2.70;;;7.50;99.90;;;;;;5067336;28;20241;-76
2022/06/01 02:08:15;;;;;;;2.83;2.40;;;7.40;99.90;;;;;;5052082;28;20235;-76
2022/06/01 02:13:26;;;;;;;3.57;2.53;;;7.30;99.90;;;;;;5052046;28;20204;-77
2022/06/01 02:15:54;;;;;;;2.80;2.60;;;7.30;99.90;;;;;;5050939;28;20178;-77
2022/06/01 02:18:37;;;;;;;3.33;2.80;;;7.30;99.90;;;;;;5052384;28;20231;-76
2022/06/01 02:21:09;;;;;;;2.60;2.40;;;7.20;99.90;;;;;;5050992;28;20185;-76
2022/06/01 02:23:37;;;;;;;2.50;2.30;;;7.20;99.90;;;;;;5050537;28;20226;-76
2022/06/01 02:26:03;;;;;;;2.90;2.70;;;7.10;99.90;;;;;;5018032;28;20207;-76
2022/06/01 02:28:30;;;;;;;2.80;2.50;;;7.00;99.90;;;;;;5034272;28;20208;-76
2022/06/01 02:30:57;;;;;;;2.90;2.60;;;7.00;99.90;;;;;;5050473;28;20211;-76
2022/06/01 02:33:32;;;;;;;2.73;2.50;;;6.90;99.90;;;;;;5050300;28;20250;-76
2022/06/01 02:36:00;;;;;;;2.50;2.30;;;7.00;99.90;;;;;;5051793;28;20223;-77
2022/06/01 02:38:43;;;;;;;2.83;2.60;;;7.20;99.90;;;;;;5050484;28;20181;-76
2022/06/01 02:43:54;;;;;;;2.50;2.30;;;7.30;99.90;;;;;;5050718;28;20204;-76
2022/06/01 02:46:20;;;;;;;2.93;2.30;;;7.30;99.90;;;;;;5017731;28;20193;-76
2022/06/01 02:48:46;;;;;;;2.60;2.40;;;7.40;99.90;;;;;;5033862;28;20280;-76
2022/06/01 02:51:12;;;;;;;2.57;2.37;;;7.40;99.90;;;;;;5017479;28;20267;-76
2022/06/01 02:53:38;;;;;;;2.27;2.17;;;7.40;99.90;;;;;;5053125;28;20197;-76
2022/06/01 02:56:05;;;;;;;2.47;2.23;;;7.40;99.90;;;;;;5037643;28;20177;-76
2022/06/01 02:58:30;;;;;;;2.80;2.50;;;7.40;99.90;;;;;;5054320;28;20268;-76
2022/06/01 03:00:58;;;;;;;2.60;2.40;;;7.50;99.90;;;;;;5054134;28;20209;-76
2022/06/01 03:03:24;;;;;;;2.67;2.30;;;7.50;99.90;;;;;;5037326;28;20307;-76
2022/06/01 03:05:50;;;;;;;2.50;2.30;;;7.50;99.90;;;;;;5037468;28;20276;-76
2022/06/01 03:08:15;;;;;;;2.63;2.40;;;7.40;99.90;;;;;;5037343;28;20177;-76
2022/06/01 03:10:41;;;;;;;2.80;2.60;;;7.40;99.90;;;;;;5037686;28;20208;-76
2022/06/01 03:13:07;;;;;;;2.70;2.50;;;7.30;99.90;;;;;;5037001;28;20222;-76
2022/06/01 03:15:33;;;;;;;2.90;2.60;;;7.40;99.90;;;;;;5055485;28;20594;-76
2022/06/01 03:17:59;;;;;;;2.83;2.60;;;7.40;99.90;;;;;;5037571;28;20185;-76
2022/06/01 03:20:27;;;;;;;2.47;2.27;;;7.40;99.90;;;;;;5053949;28;20181;-76
2022/06/01 03:22:53;;;;;;;2.93;2.63;;;7.40;99.90;;;;;;5053259;28;20225;-76
2022/06/01 03:25:22;;;;;;;2.60;2.40;;;7.40;99.90;;;;;;5037536;28;20621;-76
2022/06/01 03:27:48;;;;;;;2.53;2.33;;;7.50;99.90;;;;;;5053831;28;20190;-76
2022/06/01 03:30:18;;;;;;;2.60;2.40;;;7.50;99.90;;;;;;5020757;28;20193;-76
2022/06/01 03:32:45;;;;;;;2.93;2.33;;;7.40;99.90;;;;;;5053296;28;20327;-76
2022/06/01 03:35:12;;;;;;;2.50;2.30;;;7.40;99.90;;;;;;5020577;28;20551;-76
2022/06/01 03:37:37;;;;;;;2.53;2.33;;;7.40;99.90;;;;;;5053410;28;20178;-76
2022/06/01 03:40:04;;;;;;;2.50;2.30;;;7.30;99.90;;;;;;5020443;28;20200;-76
2022/06/01 03:42:30;;;;;;;2.93;2.30;;;7.20;99.90;;;;;;5020242;28;20202;-76
2022/06/01 03:47:41;;;;;;;2.90;2.60;;;7.20;99.90;;;;;;5053799;28;20187;-76
2022/06/01 03:50:08;;;;;;;3.43;3.13;;;7.40;99.90;;;;;;5036422;28;20287;-76
2022/06/01 03:52:34;;;;;;;3.60;3.30;;;7.30;99.90;;;;;;5052827;28;20680;-76
2022/06/01 03:55:00;;;;;;;4.20;3.80;;;7.20;99.90;;;;;;5036531;28;20280;-76
2022/06/01 03:57:26;;;;;;;4.67;3.87;;;7.20;99.90;;;;;;5054401;28;20180;-76
2022/06/01 03:59:51;;;;;;;4.27;3.87;;;7.30;99.90;;;;;;5053205;28;20169;-76
2022/06/01 04:02:17;;;;;;;4.67;4.07;;;7.40;99.90;;;;;;5036114;28;20560;-76
2022/06/01 04:04:42;;;;;;;4.03;3.47;;;7.50;99.90;;;;;;5051897;28;20659;-76
2022/06/01 04:07:08;;;;;;;4.80;3.47;;;7.50;99.90;;;;;;5036336;28;20212;-76
2022/06/01 04:09:34;;;;;;;4.30;3.90;;;7.40;99.90;;;;;;5019893;28;20278;-76
2022/06/01 04:11:59;;;;;;;3.50;3.20;;;7.50;99.90;;;;;;5036118;28;20213;-76
2022/06/01 04:14:26;;;;;;;4.40;3.60;;;7.40;99.90;;;;;;5036275;28;20218;-76
2022/06/01 04:16:52;;;;;;;4.00;3.50;;;7.40;99.90;;;;;;5052838;28;20177;-76
2022/06/01 04:19:18;;;;;;;3.57;3.17;;;7.60;99.90;;;;;;5036140;28;20192;-76
2022/06/01 04:21:46;;;;;;;3.50;3.20;;;7.60;99.90;;;;;;5052423;28;20181;-76
2022/06/01 04:24:16;;;;;;;4.50;3.60;;;7.60;99.90;;;;;;5052576;28;20211;-76
2022/06/01 04:26:41;;;;;;;4.17;3.77;;;7.70;99.90;;;;;;5036020;28;20243;-76
2022/06/01 04:29:08;;;;;;;4.07;3.53;;;7.90;99.90;;;;;;5036001;28;20734;-76
2022/06/01 04:31:34;;;;;;;4.40;4.00;;;8.00;99.90;;;;;;5052212;28;20256;-76
2022/06/01 04:34:00;;;;;;;5.33;4.40;;;8.20;99.90;;;;;;5053189;28;20663;-76
2022/06/01 04:36:25;;;;;;;5.07;4.50;;;8.40;99.90;;;;;;5053542;28;20181;-76
2022/06/01 04:38:51;;;;;;;5.23;4.73;;;8.50;99.90;;;;;;5052415;28;20181;-76
2022/06/01 04:41:17;;;;;;;6.10;5.40;;;8.40;99.90;;;;;;5019302;28;20185;-76
2022/06/01 04:43:43;;;;;;;5.53;5.03;;;8.30;99.90;;;;;;5018892;28;20684;-76
2022/06/01 04:46:09;;;;;;;6.57;5.23;;;8.30;99.90;;;;;;5052117;28;20280;-76
2022/06/01 04:48:34;;;;;;;5.40;4.77;;;8.40;99.90;;;;;;5052368;28;20216;-76
2022/06/01 04:51:01;;;;;;;5.03;4.53;;;8.50;99.90;;;;;;5052178;28;20189;-76
2022/06/01 04:53:27;;;;;;;6.00;4.57;;;8.50;99.90;;;;;;5051829;28;20193;-76
2022/06/01 04:55:53;;;;;;;5.63;4.50;;;8.50;99.90;;;;;;5035564;28;20188;-76
2022/06/01 04:58:19;;;;;;;6.57;5.00;;;8.60;99.90;;;;;;5035389;28;20219;-76
2022/06/01 05:00:45;;;;;;;5.90;4.90;;;8.60;99.90;;;;;;5052941;28;20182;-76
2022/06/01 05:03:11;;;;;;;5.10;4.60;;;8.70;99.90;;;;;;5035129;28;20709;-76
2022/06/01 05:05:39;;;;;;;4.90;4.40;;;8.70;99.90;;;;;;5035436;28;20637;-77
2022/06/01 05:08:05;;;;;;;5.53;4.67;;;8.80;99.90;;;;;;5035466;28;20593;-77
2022/06/01 05:10:32;;;;;;;4.77;4.37;;;8.90;99.90;;;;;;5035275;28;20182;-77
2022/06/01 05:12:57;;;;;;;5.00;4.50;;;8.90;99.90;;;;;;5034883;28;20218;-77
2022/06/01 05:15:23;;;;;;;5.10;4.60;;;9.00;99.90;;;;;;5034669;28;20341;-78
2022/06/01 05:17:48;;;;;;;4.70;4.20;;;9.00;99.90;;;;;;5018665;28;20528;-77
2022/06/01 05:20:14;;;;;;;4.97;4.50;;;9.10;99.90;;;;;;5035075;28;20171;-77
2022/06/01 05:22:40;;;;;;;4.60;4.20;;;9.20;99.90;;;;;;5034827;28;20203;-77
2022/06/01 05:25:07;;;;;;;6.30;4.80;;;9.30;99.90;;;;;;5035090;28;20180;-77
2022/06/01 05:27:33;;;;;;;5.13;4.40;;;9.20;99.90;;;;;;5018461;28;20183;-78
2022/06/01 05:30:00;;;;;;;4.30;3.90;;;9.40;99.90;;;;;;5034722;28;20182;-77
2022/06/01 05:32:26;;;;;;;4.43;4.03;;;9.40;99.90;;;;;;5052241;28;20221;-77
2022/06/01 05:34:52;;;;;;;5.30;4.57;;;9.40;99.90;;;;;;5034895;28;20188;-78
2022/06/01 05:37:18;;;;;;;4.87;4.23;;;9.50;99.90;;;;;;5018383;28;20184;-77
2022/06/01 05:39:44;;;;;;;5.20;4.70;;;9.50;99.90;;;;;;5018033;28;20181;-77
2022/06/01 05:42:10;;;;;;;4.97;4.50;;;9.60;99.90;;;;;;5018202;28;20185;-78
2022/06/01 05:44:36;;;;;;;5.23;4.20;;;9.70;99.90;;;;;;5050966;28;20211;-78
2022/06/01 05:47:03;;;;;;;5.13;4.30;;;9.90;99.90;;;;;;5051146;28;20214;-77
2022/06/01 05:49:29;;;;;;;5.13;4.40;;;10.00;99.90;;;;;;5051213;28;20213;-78
2022/06/01 05:51:55;;;;;;;4.80;4.40;;;10.10;99.90;;;;;;5050892;28;20207;-77
2022/06/01 05:54:21;;;;;;;4.70;4.30;;;10.20;99.90;;;;;;5034218;28;20200;-77
2022/06/01 05:56:47;;;;;;;5.67;4.40;;;10.30;99.90;;;;;;5052382;28;20255;-76
2022/06/01 05:59:14;;;;;;;5.47;4.83;;;10.50;99.90;;;;;;5050963;28;20272;-77
2022/06/01 06:01:40;;;;;;;4.90;4.50;;;10.40;99.90;;;;;;5034461;28;20180;-77
2022/06/01 06:04:06;;;;;;;7.00;4.83;;;10.40;99.90;;;;;;5050729;28;20220;-77
2022/06/01 06:06:32;;;;;;;5.60;4.53;;;10.50;99.90;;;;;;5034327;28;20179;-77
2022/06/01 06:09:07;;;;;;;4.70;4.20;;;10.40;99.90;;;;;;5050819;28;20635;-81
2022/06/01 06:11:35;;;;;;;4.77;4.37;;;10.40;99.90;;;;;;5050691;28;20196;-78
2022/06/01 06:14:02;;;;;;;4.70;4.30;;;10.50;99.90;;;;;;5050674;28;20195;-77
2022/06/01 06:16:30;;;;;;;5.23;4.60;;;10.60;99.90;;;;;;5052357;28;20164;-77
2022/06/01 06:18:56;;;;;;;5.87;5.23;;;10.70;99.90;;;;;;5052027;28;20509;-78
2022/06/01 06:21:23;;;;;;;5.73;4.97;;;10.70;99.90;;;;;;5017889;28;20227;-77
2022/06/01 06:23:48;;;;;;;5.30;4.80;;;10.70;99.90;;;;;;5034074;28;20205;-77
2022/06/01 06:26:14;;;;;;;5.90;4.70;;;10.80;99.90;;;;;;5034083;28;20180;-77
2022/06/01 06:28:40;;;;;;;5.87;5.07;;;10.80;99.90;;;;;;5054101;28;20185;-77
2022/06/01 06:31:06;;;;;;;5.53;4.77;;;10.80;99.90;;;;;;5038201;28;20177;-77
2022/06/01 06:33:32;;;;;;;5.30;4.80;;;10.90;99.90;;;;;;5037918;28;20197;-77
2022/06/01 06:36:04;;;;;;;5.13;4.63;;;11.00;99.90;;;;;;5038135;28;20174;-77
2022/06/01 06:38:32;;;;;;;5.90;5.10;;;11.10;99.90;;;;;;5038206;28;20227;-77
2022/06/01 06:40:59;;;;;;;5.13;4.63;;;11.30;99.90;;;;;;5037991;28;20205;-77
2022/06/01 06:43:26;;;;;;;4.80;4.30;;;11.30;99.90;;;;;;5054369;28;20220;-77
2022/06/01 06:46:00;;;;;;;5.57;5.07;;;11.30;99.90;;;;;;5037859;28;20204;-77
2022/06/01 06:48:27;;;;;;;5.43;4.07;;;11.40;99.90;;;;;;5054587;28;20602;-77
2022/06/01 06:50:52;;;;;;;5.13;4.60;;;11.50;99.90;;;;;;5021438;28;20264;-77
2022/06/01 06:53:18;;;;;;;4.57;4.07;;;11.60;99.90;;;;;;5037315;28;20308;-77
2022/06/01 06:55:44;;;;;;;4.87;4.43;;;11.70;99.90;;;;;;5037696;28;20177;-77
2022/06/01 06:58:11;;;;;;;4.90;4.50;;;11.80;99.90;;;;;;5037653;28;20593;-77
2022/06/01 07:00:37;;;;;;;7.67;4.43;;;11.90;99.90;;;;;;5037725;28;20170;-77
2022/06/01 07:03:04;;;;;;;5.17;4.67;;;12.00;99.90;;;;;;5037251;28;20331;-78
2022/06/01 07:08:14;;;;;;;5.43;4.50;;;12.20;99.90;;;;;;5054631;28;20197;-78
2022/06/01 07:10:40;;;;;;;5.10;4.60;;;12.40;99.90;;;;;;5037388;28;20204;-78
2022/06/01 07:13:06;;;;;;;5.73;4.80;;;12.50;99.90;;;;;;5037223;28;20263;-78
2022/06/01 07:15:31;;;;;;;5.07;4.57;;;12.60;99.90;;;;;;5053917;28;20667;-78
2022/06/01 07:17:57;;;;;;;4.67;4.27;;;12.70;99.90;;;;;;5053922;28;20201;-78
2022/06/01 07:20:22;;;;;;;5.37;4.43;;;12.80;99.90;;;;;;5037407;28;20549;-77
2022/06/01 07:22:48;;;;;;;5.50;4.70;;;12.90;99.90;;;;;;5020713;28;20202;-78
2022/06/01 07:25:14;;;;;;;5.00;4.10;;;12.90;99.90;;;;;;5037218;28;20182;-77
2022/06/01 07:27:40;;;;;;;4.70;4.20;;;13.00;99.90;;;;;;5037303;28;20204;-78
2022/06/01 07:30:07;;;;;;;4.90;4.10;;;13.10;99.90;;;;;;5037040;28;20170;-78
2022/06/01 07:32:33;;;;;;;6.47;4.13;;;13.20;99.90;;;;;;5053068;28;20309;-78
2022/06/01 07:35:02;;;;;;;4.57;4.07;;;13.40;99.90;;;;;;5053423;28;20284;-78
2022/06/01 07:43:07;;;;;;;4.77;4.27;;;13.70;99.90;;;;;;5054350;28;20220;-78
2022/06/01 07:45:35;;;;;;;6.20;3.73;;;14.00;99.90;;;;;;5038427;28;20185;-77
2022/06/01 07:48:05;;;;;;;4.77;3.97;;;14.20;99.90;;;;;;5037035;28;20239;-77
2022/06/01 07:50:32;;;;;;;3.73;3.43;;;14.10;99.90;;;;;;5054556;28;20224;-77
2022/06/01 07:52:59;;;;;;;4.73;3.40;;;14.10;99.90;;;;;;5052918;28;20208;-77
2022/06/01 07:55:25;;;;;;;3.53;3.23;;;14.30;99.90;;;;;;5054409;28;20523;-77
2022/06/01 07:57:50;;;;;;;4.93;3.63;;;14.50;99.90;;;;;;5020023;28;20249;-77
2022/06/01 08:00:17;;;;;;;4.00;3.60;;;14.60;99.90;;;;;;5053081;28;20220;-78
2022/06/01 08:02:43;;;;;;;3.37;3.03;;;14.70;99.90;;;;;;5060694;22;20209;-77
2022/06/01 08:05:11;;;;;;;3.70;3.10;;;14.80;99.90;;;;;;5036328;28;20718;-77
2022/06/01 08:07:36;;;;;;;3.50;3.20;;;15.00;99.90;;;;;;5036807;28;20607;-77
2022/06/01 08:10:04;;;;;;;3.67;2.70;;;15.10;99.90;;;;;;5053104;28;20178;-77
2022/06/01 08:15:13;;;;;;;2.57;2.20;;;15.30;99.90;;;;;;5039235;28;20256;-77
2022/06/01 08:17:44;;;;;;;3.07;2.30;;;15.40;99.90;;;;;;5052804;28;20193;-77
2022/06/01 08:20:11;;;;;;;3.53;2.50;;;15.50;99.90;;;;;;5020934;28;20231;-77
2022/06/01 08:22:37;;;;;;;2.63;2.40;;;15.50;99.90;;;;;;5052488;28;20166;-77
2022/06/01 08:25:03;;;;;;;2.40;2.20;;;15.50;99.90;;;;;;5052587;28;20594;-76
2022/06/01 08:27:28;;;;;;;3.00;2.20;;;15.70;99.90;;;;;;5036053;28;20575;-76
2022/06/01 08:29:54;;;;;;;2.73;2.30;;;15.80;99.90;;;;;;5036071;28;20173;-77
2022/06/01 08:32:19;;;;;;;2.53;2.10;;;16.00;99.90;;;;;;5019215;28;20259;-76
2022/06/01 08:34:45;;;;;;;3.33;2.30;;;16.00;99.90;;;;;;5035939;28;20205;-76
2022/06/01 08:37:10;;;;;;;2.67;2.20;;;16.20;99.90;;;;;;5052411;28;20557;-77
2022/06/01 08:39:36;;;;;;;2.60;2.30;;;16.30;99.90;;;;;;5054165;28;20184;-77
2022/06/01 08:42:03;;;;;;;3.97;2.33;;;16.40;99.90;;;;;;5019552;28;20212;-77
2022/06/01 08:44:29;;;;;;;2.20;2.00;;;16.40;99.90;;;;;;5035935;28;20350;-77
2022/06/01 08:46:58;;;;;;;3.07;2.47;;;16.50;99.90;;;;;;5052687;28;20707;-77
2022/06/01 08:49:47;;;;;;;2.33;2.10;;;16.40;99.90;;;;;;5036103;28;20196;-77
2022/06/01 08:52:12;;;;;;;2.50;2.10;;;16.50;99.90;;;;;;5052501;28;20201;-77
2022/06/01 08:54:39;;;;;;;2.40;2.20;;;16.70;99.90;;;;;;5052601;28;20202;-77
2022/06/01 08:57:14;;;;;;;2.90;2.23;;;16.90;99.90;;;;;;5036119;28;20203;-77
2022/06/01 09:00:01;;;;;;;2.33;2.13;;;16.90;99.90;;;;;;5052319;28;20295;-77
2022/06/01 09:02:57;;;;;;;2.20;2.00;;;17.00;99.90;;;;;;5052524;28;20166;-77
2022/06/01 09:05:33;;;;;;;2.50;2.30;;;17.10;99.90;;;;;;5053617;28;20245;-77
2022/06/01 09:08:21;;;;;;;2.43;2.20;;;17.10;99.90;;;;;;5052137;28;20223;-77
2022/06/01 09:11:05;;;;;;;2.60;2.17;;;17.10;99.90;;;;;;5012373;28;20197;-77
2022/06/01 09:13:53;;;;;;;3.20;2.20;;;17.20;99.90;;;;;;5052176;28;20213;-77
2022/06/01 09:16:28;;;;;;;2.20;2.00;;;17.20;99.90;;;;;;5041277;28;20185;-77
2022/06/01 09:18:54;;;;;;;2.27;1.90;;;17.20;99.90;;;;;;5052451;28;20161;-77
2022/06/01 09:24:25;;;;;;;2.40;1.90;;;17.00;99.90;;;;;;5053545;28;20196;-77
2022/06/01 09:26:55;;;;;;;2.93;2.23;;;16.90;99.90;;;;;;5052155;28;20169;-78
2022/06/01 09:29:28;;;;;;;2.60;2.37;;;16.90;99.90;;;;;;5053425;28;20169;-77
2022/06/01 09:32:04;;;;;;;24.20;6.80;;;17.00;99.90;;;;;;5051799;28;20229;-75
2022/06/01 09:35:18;;;;;;;13.57;4.80;;;17.10;99.90;;;;;;5052065;28;20193;-77
2022/06/01 09:37:46;;;;;;;2.63;2.30;;;17.40;99.90;;;;;;5051850;28;20162;-75
2022/06/01 09:40:27;;;;;;;15.93;7.37;;;17.80;99.90;;;;;;5051848;28;20208;-76
2022/06/01 09:42:54;;;;;;;2.53;2.10;;;18.10;99.90;;;;;;5051363;28;20204;-75
2022/06/01 09:45:42;;;;;;;2.30;2.10;;;18.30;99.90;;;;;;5051704;28;20182;-76
2022/06/01 09:51:34;;;;;;;2.80;2.33;;;18.30;99.90;;;;;;5052739;28;20219;-75
2022/06/01 09:54:20;;;;;;;2.77;2.10;;;18.40;99.90;;;;;;5051236;28;20212;-76
2022/06/01 09:56:47;;;;;;;5.50;3.43;;;18.00;99.90;;;;;;5036164;28;20166;-76
2022/06/01 10:08:25;;;;;;;2.63;1.90;;;19.20;99.90;;;;;;5051871;28;20211;-75
2022/06/01 10:11:28;;;;;;;3.20;2.40;;;19.10;99.90;;;;;;5051377;28;20192;-76
2022/06/01 10:14:03;;;;;;;1.93;1.73;;;18.70;99.90;;;;;;5051087;28;20236;-76
2022/06/01 10:16:36;;;;;;;2.10;1.90;;;18.50;99.90;;;;;;5051662;28;20173;-76
2022/06/01 10:19:07;;;;;;;1.83;1.70;;;18.60;99.90;;;;;;5051631;28;20192;-76
2022/06/01 10:22:40;;;;;;;4.10;3.70;;;18.90;99.90;;;;;;5051292;28;20256;-77
2022/06/01 10:25:15;;;;;;;4.10;2.77;;;19.40;99.90;;;;;;4993975;28;20178;-76
2022/06/01 10:28:01;;;;;;;2.00;1.50;;;19.60;99.90;;;;;;4977962;28;20273;-76
2022/06/01 10:30:32;;;;;;;2.47;1.67;;;19.60;99.90;;;;;;5030984;28;20276;-76
2022/06/01 10:33:17;;;;;;;1.47;1.00;;;19.70;99.90;;;;;;5050955;28;20220;-76
2022/06/01 10:35:43;;;;;;;3.00;1.03;;;19.40;99.90;;;;;;5051162;28;20166;-76
2022/06/01 10:38:19;;;;;;;1.93;1.10;;;19.10;99.90;;;;;;5051339;28;20650;-76
2022/06/01 10:41:09;;;;;;;2.17;1.20;;;18.90;99.90;;;;;;5051518;28;20179;-76
2022/06/01 10:43:59;;;;;;;2.43;1.30;;;18.90;99.90;;;;;;5034500;28;20208;-76
2022/06/01 10:46:47;;;;;;;1.30;1.20;;;19.00;99.90;;;;;;5035354;28;20683;-77
2022/06/01 10:49:54;;;;;;;3.03;1.40;;;19.40;99.90;;;;;;5051180;28;20177;-77
2022/06/01 10:52:37;;;;;;;1.27;1.17;;;19.80;99.90;;;;;;5051900;28;20185;-77
2022/06/01 10:55:21;;;;;;;4.03;1.40;;;19.90;96.40;;;;;;5050710;28;20173;-76
2022/06/01 10:57:49;;;;;;;1.00;1.00;;;19.90;94.00;;;;;;5050645;28;20663;-76
2022/06/01 11:00:24;;;;;;;1.93;1.10;;;20.10;95.90;;;;;;5033898;28;20666;-76
2022/06/01 11:03:05;;;;;;;2.33;1.33;;;19.90;96.10;;;;;;5050070;28;20292;-75
2022/06/01 11:06:02;;;;;;;1.93;1.40;;;19.80;95.40;;;;;;5050468;28;20173;-76
2022/06/01 11:08:39;;;;;;;2.20;1.40;;;19.80;96.10;;;;;;5050038;28;20182;-75
2022/06/01 11:11:38;;;;;;;1.30;1.20;;;19.50;98.20;;;;;;5050101;28;20640;-76
2022/06/01 11:14:21;;;;;;;2.40;1.40;;;19.70;97.30;;;;;;5051936;28;20198;-76
2022/06/01 11:17:00;;;;;;;1.63;1.33;;;19.80;96.50;;;;;;5054190;28;20208;-76
2022/06/01 11:19:43;;;;;;;2.20;1.30;;;19.40;96.40;;;;;;5053933;28;20185;-76
2022/06/01 11:22:22;;;;;;;2.77;1.47;;;19.50;97.10;;;;;;5054983;28;20173;-76
2022/06/01 11:25:08;;;;;;;2.77;1.70;;;19.70;97.40;;;;;;5054879;28;20212;-76
2022/06/01 11:27:46;;;;;;;1.60;1.37;;;19.80;95.40;;;;;;5053632;28;20181;-75
2022/06/01 11:30:19;;;;;;;2.73;1.37;;;19.60;94.50;;;;;;5053644;28;20196;-76
2022/06/01 11:32:52;;;;;;;3.90;1.40;;;19.50;95.60;;;;;;5054503;28;20205;-76
2022/06/01 11:35:37;;;;;;;2.37;1.30;;;19.30;96.50;;;;;;5053765;28;20209;-75
2022/06/01 11:38:17;;;;;;;1.30;1.20;;;19.00;98.30;;;;;;5054006;28;20161;-76
2022/06/01 11:40:52;;;;;;;1.50;1.40;;;19.50;97.40;;;;;;5053423;28;20219;-76
2022/06/01 11:43:34;;;;;;;1.53;1.30;;;19.90;95.50;;;;;;5053294;28;20196;-77
2022/06/01 11:46:15;;;;;;;2.00;1.63;;;20.20;94.40;;;;;;5036780;28;20209;-76
2022/06/01 11:48:49;;;;;;;1.40;1.30;;;20.10;95.20;;;;;;5023167;28;20173;-76
2022/06/01 11:51:18;;;;;;;2.80;1.30;;;20.50;93.90;;;;;;5053705;28;20162;-76
2022/06/01 11:54:14;;;;;;;1.90;1.20;;;20.70;93.00;;;;;;5054650;28;20190;-76
2022/06/01 11:57:16;;;;;;;3.53;1.40;;;20.90;92.30;;;;;;5053442;28;20162;-76
2022/06/01 12:00:11;;;;;;;3.17;1.33;;;21.00;91.80;;;;;;5055215;28;20608;-76
2022/06/01 12:02:43;;;;;;;1.23;1.13;;;21.20;92.50;;;;;;5054483;28;20166;-76
2022/06/01 12:05:27;;;;;;;1.65;1.45;;;21.50;89.80;;;;;;5038056;28;20180;-76
2022/06/01 12:08:00;;;;;;;1.63;1.27;;;21.10;87.30;;;;;;5053417;28;20169;-76
2022/06/01 12:10:32;;;;;;;2.95;1.30;;;21.00;84.90;;;;;;5037597;28;20174;-76
2022/06/01 12:13:03;;;;;;;1.50;1.40;;;21.30;87.80;;;;;;5053419;28;20206;-76
2022/06/01 12:15:38;;;;;;;1.92;1.33;;;21.40;84.80;;;;;;5053438;28;20538;-76
2022/06/01 12:18:13;;;;;;;1.20;1.10;;;21.10;87.10;;;;;;5054510;28;20195;-76
2022/06/01 12:20:38;;;;;;;1.50;1.10;;;21.50;88.00;;;;;;5054761;28;20173;-76
2022/06/01 12:29:07;;;;;;;1.80;1.10;;;21.00;85.40;;;;;;5054410;28;20169;-77
2022/06/01 12:31:59;;;;;;;1.33;1.23;;;20.80;84.20;;;;;;5053093;28;20655;-76
2022/06/01 12:34:32;;;;;;;1.77;1.10;;;20.60;87.50;;;;;;5052737;28;20203;-76
2022/06/01 12:37:04;;;;;;;2.28;1.30;;;20.80;83.60;;;;;;5052952;28;20551;-76
2022/06/01 12:39:35;;;;;;;1.42;1.02;;;20.40;83.40;;;;;;5052864;28;20671;-76
2022/06/01 12:42:20;;;;;;;1.70;1.10;;;20.00;87.10;;;;;;5052867;28;20194;-76
2022/06/01 12:45:25;;;;;;;1.67;1.10;;;19.70;86.00;;;;;;5052674;28;20198;-76
2022/06/01 12:47:57;;;;;;;1.57;1.10;;;19.50;88.30;;;;;;5053043;28;20165;-76
2022/06/01 12:50:24;;;;;;;1.30;1.20;;;19.40;89.80;;;;;;5052869;28;20157;-76
2022/06/01 12:53:15;;;;;;;1.27;1.10;;;19.50;91.10;;;;;;5052336;28;20235;-77
2022/06/01 12:55:42;;;;;;;1.20;1.10;;;20.10;91.20;;;;;;5052578;28;20154;-75
2022/06/01 12:58:15;;;;;;;2.65;1.20;;;20.90;89.30;;;;;;5036022;28;20173;-77
2022/06/01 13:00:47;;;;;;;1.17;1.08;;;21.40;87.30;;;;;;5052802;28;20154;-76
2022/06/01 13:03:13;;;;;;;1.35;1.23;;;21.70;85.60;;;;;;5052387;28;20210;-76
2022/06/01 13:05:41;;;;;;;1.33;1.13;;;21.80;80.60;;;;;;5053545;28;20252;-76
2022/06/01 13:08:18;;;;;;;1.33;1.10;;;20.90;82.10;;;;;;5052602;28;20201;-76
2022/06/01 13:10:43;;;;;;;1.75;1.20;;;20.30;82.60;;;;;;5052575;28;20162;-76
2022/06/01 13:13:10;;;;;;;3.05;1.20;;;20.50;83.80;;;;;;5035624;28;20213;-76
2022/06/01 13:15:38;;;;;;;1.35;1.25;;;20.60;82.00;;;;;;5052055;28;20212;-76
2022/06/01 13:18:07;;;;;;;1.27;1.10;;;20.30;81.80;;;;;;5052239;28;20174;-75
2022/06/01 13:20:42;;;;;;;1.25;1.00;;;20.00;84.50;;;;;;5035872;28;20177;-76
2022/06/01 13:23:17;;;;;;;1.75;1.13;;;19.90;87.50;;;;;;5052059;28;20711;-76
2022/06/01 13:25:43;;;;;;;0.90;0.90;;;19.90;87.30;;;;;;5052023;28;20169;-76
2022/06/01 13:28:10;;;;;;;1.70;1.20;;;19.70;85.60;;;;;;5051891;28;20208;-76
2022/06/01 13:30:37;;;;;;;0.90;0.90;;;20.00;86.00;;;;;;5052046;28;20186;-76
2022/06/01 13:33:29;;;;;;;2.35;1.00;;;20.60;84.60;;;;;;5051571;28;20206;-76
2022/06/01 13:36:00;;;;;;;1.63;0.90;;;20.60;81.70;;;;;;5053058;28;20515;-76
2022/06/01 13:38:43;;;;;;;1.10;1.00;;;20.30;81.00;;;;;;5051756;28;20157;-76
2022/06/01 13:41:34;;;;;;;1.75;1.10;;;20.20;80.20;;;;;;5051660;28;20252;-77
2022/06/01 13:47:29;;;;;;;0.80;0.80;;;20.50;81.30;;;;;;5053007;28;20153;-76
2022/06/01 13:50:03;;;;;;;1.00;0.90;;;20.50;80.00;;;;;;5036030;28;20161;-77
2022/06/01 13:52:29;;;;;;;1.95;0.93;;;20.20;79.60;;;;;;5051515;28;20276;-76
2022/06/01 13:55:13;;;;;;;3.90;1.00;;;20.60;83.20;;;;;;5052726;28;20166;-77
2022/06/01 13:57:54;;;;;;;0.90;0.80;;;21.20;79.40;;;;;;5019512;28;20169;-77
2022/06/01 14:00:32;;;;;;;2.15;1.10;;;21.60;77.90;;;;;;5051268;28;20173;-77
2022/06/01 14:03:25;;;;;;;1.20;1.05;;;22.00;75.90;;;;;;5053044;28;20264;-77